createdAt,value
2023-05-04T00:02:40.138Z,19.35
2023-05-04T00:12:41.513Z,19.41
2023-05-04T00:22:42.885Z,19.41
2023-05-04T00:32:44.228Z,19.45
2023-05-04T00:42:45.515Z,19.42
2023-05-04T00:52:46.909Z,19.44
2023-05-04T01:02:48.207Z,19.35
2023-05-04T01:12:49.554Z,19.40
2023-05-04T01:22:50.819Z,19.38
2023-05-04T01:32:52.127Z,19.34
2023-05-04T01:42:53.371Z,19.24
2023-05-04T01:52:54.621Z,19.23
2023-05-04T02:02:55.901Z,19.23
2023-05-04T02:12:57.286Z,19.29
2023-05-04T02:22:58.718Z,19.28
2023-05-04T02:33:00.014Z,19.19
2023-05-04T02:43:01.295Z,19.18
2023-05-04T02:53:02.530Z,19.22
2023-05-04T03:03:03.827Z,19.17
2023-05-04T03:13:05.160Z,19.13
2023-05-04T03:23:06.544Z,19.18
2023-05-04T03:33:07.884Z,19.12
2023-05-04T03:43:09.172Z,19.15
2023-05-04T03:53:10.429Z,19.15
2023-05-04T04:03:11.948Z,19.25
2023-05-04T04:13:13.546Z,19.26
2023-05-04T04:23:14.906Z,19.24
2023-05-04T04:33:16.136Z,19.26
2023-05-04T04:43:17.381Z,19.24
2023-05-04T04:53:18.661Z,19.36
2023-05-04T05:03:19.941Z,19.31
2023-05-04T05:13:21.370Z,19.36
2023-05-04T05:23:22.721Z,19.42
2023-05-04T05:33:23.948Z,19.31
2023-05-04T05:43:25.232Z,19.43
2023-05-04T05:53:26.511Z,19.45
2023-05-04T06:03:28.207Z,19.53
2023-05-04T06:13:29.621Z,19.63
2023-05-04T06:23:30.869Z,19.73
2023-05-04T06:33:32.101Z,19.84
2023-05-04T06:43:33.404Z,19.85
2023-05-04T06:53:34.903Z,19.97
2023-05-04T07:03:36.270Z,19.97
2023-05-04T07:13:37.569Z,20.02
2023-05-04T07:23:38.855Z,20.05
2023-05-04T07:33:40.129Z,20.15
2023-05-04T07:43:43.588Z,20.14
2023-05-04T07:53:44.833Z,20.18
2023-05-04T08:03:46.168Z,20.17
2023-05-04T08:13:47.438Z,20.23
2023-05-04T08:23:48.705Z,20.16
2023-05-04T08:33:50.281Z,20.17
2023-05-04T08:43:51.551Z,20.18
2023-05-04T08:53:52.865Z,20.16
2023-05-04T09:03:56.994Z,20.15
2023-05-04T09:14:04.775Z,20.16
2023-05-04T09:24:12.801Z,20.17
2023-05-04T09:34:20.778Z,20.15
2023-05-04T09:44:29.986Z,20.06
2023-05-04T09:54:37.760Z,20.07
2023-05-04T10:04:45.791Z,20.07
2023-05-04T10:14:53.810Z,20.10
2023-05-04T10:25:04.446Z,20.07
2023-05-04T10:35:12.784Z,20.03
2023-05-04T10:45:21.791Z,20.09
2023-05-04T10:55:32.263Z,20.09
2023-05-04T11:05:39.841Z,20.12
2023-05-04T11:15:43.781Z,20.12
2023-05-04T11:25:51.827Z,20.14
2023-05-04T11:36:00.790Z,20.17
2023-05-04T11:46:08.817Z,20.21
2023-05-04T11:56:16.798Z,20.20
2023-05-04T12:06:24.811Z,20.20
2023-05-04T12:16:33.906Z,20.25
2023-05-04T12:26:41.787Z,20.24
2023-05-04T12:36:49.840Z,20.23
2023-05-04T12:46:58.774Z,20.31
2023-05-04T12:57:06.792Z,20.32
2023-05-04T13:07:15.884Z,20.36
2023-05-04T13:17:23.864Z,20.40
2023-05-04T13:27:31.782Z,20.41
2023-05-04T13:37:39.813Z,20.38
2023-05-04T13:47:47.995Z,20.41
2023-05-04T13:57:55.797Z,20.42
2023-05-04T14:08:04.836Z,20.49
2023-05-04T14:18:12.905Z,20.47
2023-05-04T14:28:20.837Z,20.47
2023-05-04T14:38:29.806Z,20.47
2023-05-04T14:48:37.833Z,20.48
2023-05-04T14:58:45.805Z,20.41
2023-05-04T15:08:53.868Z,20.44
2023-05-04T15:19:02.840Z,20.46
2023-05-04T15:29:10.823Z,20.45
2023-05-04T15:39:18.798Z,20.46
2023-05-04T15:49:26.828Z,20.47
2023-05-04T15:59:35.866Z,20.47
2023-05-04T16:30:34.735Z,20.39
2023-05-04T16:40:37.676Z,20.25
2023-05-04T16:50:38.961Z,20.26
2023-05-04T17:00:44.204Z,20.38
2023-05-04T17:10:45.602Z,20.23
2023-05-04T17:20:46.931Z,20.23
2023-05-04T17:30:50.055Z,20.23
2023-05-04T17:40:57.940Z,20.24
2023-05-04T17:51:06.863Z,20.24
2023-05-04T18:01:14.923Z,20.26
2023-05-04T18:11:22.885Z,20.27
2023-05-04T18:21:32.064Z,20.26
2023-05-04T18:31:42.889Z,20.33
2023-05-04T18:41:48.279Z,20.32
2023-05-04T18:51:56.029Z,20.30
2023-05-04T19:01:57.299Z,20.35
2023-05-04T19:11:58.630Z,20.34
2023-05-04T19:21:59.946Z,20.32
2023-05-04T19:32:05.601Z,20.36
2023-05-04T19:42:13.645Z,20.35
2023-05-04T19:52:15.857Z,20.39
2023-05-04T20:02:17.138Z,20.33
2023-05-04T20:12:18.436Z,20.23
2023-05-04T20:22:19.748Z,20.35
2023-05-04T20:32:21.492Z,20.36
2023-05-04T20:42:22.820Z,20.32
2023-05-04T20:52:24.100Z,20.29
2023-05-04T21:02:25.393Z,20.23
2023-05-04T21:12:26.650Z,20.22
2023-05-04T21:22:27.921Z,20.23
2023-05-04T21:32:29.199Z,20.22
2023-05-04T21:42:31.487Z,20.18
2023-05-04T21:52:32.817Z,20.21
2023-05-04T22:02:34.136Z,20.23
2023-05-04T22:12:35.429Z,20.27
2023-05-04T22:22:36.699Z,20.23
2023-05-04T22:32:37.994Z,20.16
2023-05-04T22:42:39.297Z,20.19
2023-05-04T22:52:40.562Z,20.17
2023-05-04T23:02:41.899Z,20.15
2023-05-04T23:12:44.738Z,20.18
2023-05-04T23:22:46.053Z,20.18
2023-05-04T23:32:47.326Z,20.18
2023-05-04T23:42:48.588Z,20.20
2023-05-04T23:52:49.860Z,20.23
